Observations for PRESTWICK CIV NAVY, United Kingdom (EGPK)

EGPK 180450Z 23010KT 9999 BKN030 12/09 Q1012
EGPK 180350Z 24008KT 9999 BKN030 12/09 Q1011
EGPK 180250Z 26011KT 9999 BKN026 12/10 Q1011
EGPK 180150Z 25013KT 9999 BKN023 12/10 Q1011
EGPK 180050Z 23004KT 9999 BKN023 12/10 Q1011
EGPK 172350Z 23008KT 9999 BKN020 13/11 Q1011
EGPK 172320Z 23007KT 9999 BKN020 13/12 Q1010
EGPK 172250Z 23008KT 9000 SCT012 BKN020 13/12 Q1010 
EGPK 172220Z 25011KT 6000 -RADZ FEW004 SCT009 BKN018 13/12 Q1010
EGPK 172150Z 24008KT 8000 -RADZ FEW004 SCT009 BKN018 13/12 Q1010
EGPK 172120Z 24007KT 8000 -DZ FEW004 SCT009 BKN018 13/12 Q1010  
EGPK 172050Z 24009KT 8000 FEW006 SCT012 BKN020 14/12 Q1009  
EGPK 172020Z 24009KT 9999 FEW006 SCT012 BKN020 14/13 Q1009  
EGPK 171950Z 23009KT 7000 -RA FEW004 SCT010 BKN017 14/13 Q1009  
EGPK 171920Z 24010KT 7000 -RA FEW004 BKN009 14/13 Q1009 
EGPK 171850Z 21007KT 3000 -RA SCT004 BKN015 15/14 Q1008 
EGPK 171820Z 18007KT 6000 VCSH SCT015 BKN022 15/13 Q1008
EGPK 171750Z 18006KT 9999 FEW014 SCT022 BKN045 15/13 Q1008  
EGPK 171720Z 18008KT 9999 SCT012 BKN022 14/13 Q1008 
EGPK 171650Z 18008KT 9999 -RA SCT012 BKN022 14/13 Q1008 
EGPK 171620Z 18007KT 7000 FEW005 SCT010 14/13 Q1008 
EGPK 171550Z 18007KT 6000 FEW012 SCT020 14/12 Q1008 
EGPK 171520Z 17007KT 8000 -RA FEW012 SCT020 14/12 Q1008 
EGPK 171450Z 18012KT 5000 -RA FEW010 SCT020 14/11 Q1009 
EGPK 171420Z 17012KT 9999 SCT025 15/10 Q1008
EGPK 171350Z 18012KT 9999 SCT025 15/09 Q1009
EGPK 171320Z 18013KT 9999 SCT025 16/09 Q1009
EGPK 171250Z 20010KT 160V230 9999 SCT025 16/09 Q1009
EGPK 171220Z 19010KT 9999 SCT025 16/09 Q1009
EGPK 171150Z 24007KT 9999 SCT025 15/11 Q1009
EGPK 171120Z 25010KT 220V280 9999 FEW015 SCT025 15/10 Q1009 
EGPK 171050Z 24011KT 9999 SCT013 BKN025 15/10 Q1009 
EGPK 171020Z 25011KT 9999 SCT013 BKN025 14/10 Q1010 
EGPK 170950Z 24009KT 9999 SCT013 BKN025 14/10 Q1010 
EGPK 170920Z 23008KT 9999 SCT013 BKN025 14/10 Q1010 
EGPK 170850Z 24010KT 9999 SCT013 BKN025 14/10 Q1010 
EGPK 170820Z 22009KT 9999 SCT013 BKN025 14/10 Q1010 
EGPK 170750Z 23010KT 170V250 9999 SCT013 BKN025 13/10 Q1010 
EGPK 170720Z 21006KT 180V260 9999 SCT013 BKN025 13/10 Q1010 
EGPK 170650Z 23007KT 9999 SCT013 BKN025 12/10 Q1010 
EGPK 170620Z 23007KT 9999 SCT015 BKN028 12/10 Q1010 
EGPK 170550Z 20004KT 9999 FEW011 SCT018 BKN028 12/10 Q1009  
EGPK 170450Z 19005KT 9999 FEW028 11/10 Q1009